Time;durP1;ratioP1;P1;durP2;ratioP2;P2;SDS_P1;SDS_P2;PMS_P1;PMS_P2;Temp;Humidity;BMP_temperature;BMP_pressure;BME280_temperature;BME280_humidity;BME280_pressure;Samples;Min_cycle;Max_cycle;Signal;HPM_P1;HPM_P2
2022/09/28 00:00:23;;;;;;;;;;;19.70;46.50;;;;;;5062843;28;19928;-69
2022/09/28 00:02:51;;;;;;;;;;;19.70;46.50;;;;;;5070139;28;19924;-69
2022/09/28 00:05:20;;;;;;;;;;;19.70;46.50;;;;;;5066296;28;19943;-69
2022/09/28 00:07:48;;;;;;;;;;;19.70;46.50;;;;;;5057392;28;20019;-69
2022/09/28 00:10:17;;;;;;;;;;;19.70;46.50;;;;;;5064977;28;19925;-69
2022/09/28 00:12:43;;;;;;;;;;;19.70;46.50;;;;;;5049440;28;20027;-70
2022/09/28 00:15:12;;;;;;;;;;;19.70;46.40;;;;;;5080720;28;19966;-69
2022/09/28 00:17:39;;;;;;;;;;;19.70;46.50;;;;;;5068221;28;19927;-69
2022/09/28 00:20:06;;;;;;;;;;;19.60;46.40;;;;;;5067595;28;20356;-69
2022/09/28 00:22:33;;;;;;;;;;;19.60;46.30;;;;;;5054860;28;19928;-69
2022/09/28 00:25:00;;;;;;;;;;;19.70;46.40;;;;;;5061050;28;19924;-69
2022/09/28 00:27:26;;;;;;;;;;;19.70;46.40;;;;;;5068201;28;19921;-69
2022/09/28 00:29:53;;;;;;;;;;;19.70;46.40;;;;;;5066739;28;20361;-69
2022/09/28 00:32:23;;;;;;;;;;;19.60;46.30;;;;;;5068440;28;19921;-68
2022/09/28 00:34:50;;;;;;;;;;;19.70;46.30;;;;;;5069584;28;20285;-69
2022/09/28 00:37:18;;;;;;;;;;;19.60;46.30;;;;;;5058217;28;19925;-69
2022/09/28 00:39:46;;;;;;;;;;;19.60;46.30;;;;;;5067971;28;19920;-69
2022/09/28 00:42:14;;;;;;;;;;;19.60;46.30;;;;;;5066576;28;19920;-69
2022/09/28 00:44:42;;;;;;;;;;;19.60;46.20;;;;;;5058146;28;19920;-69
2022/09/28 00:47:32;;;;;;;;;;;19.70;46.30;;;;;;5062165;28;19921;-69
2022/09/28 00:50:03;;;;;;;;;;;19.60;46.20;;;;;;5049513;28;20297;-69
2022/09/28 00:52:32;;;;;;;;;;;19.60;46.20;;;;;;5052914;28;19921;-69
2022/09/28 00:55:00;;;;;;;;;;;19.60;46.20;;;;;;5077235;28;19931;-69
2022/09/28 00:57:26;;;;;;;;;;;19.60;46.20;;;;;;5069020;28;19934;-69
2022/09/28 00:59:53;;;;;;;;;;;19.60;46.20;;;;;;5051500;28;19927;-69
2022/09/28 01:02:20;;;;;;;;;;;19.60;46.10;;;;;;5062951;28;19994;-69
2022/09/28 01:04:47;;;;;;;;;;;19.60;46.10;;;;;;5051622;28;19921;-69
2022/09/28 01:07:16;;;;;;;;;;;19.60;46.10;;;;;;5063624;28;19920;-69
2022/09/28 01:09:43;;;;;;;;;;;19.60;46.00;;;;;;5049746;28;19925;-69
2022/09/28 01:12:12;;;;;;;;;;;19.60;46.00;;;;;;5067220;28;19924;-69
2022/09/28 01:14:40;;;;;;;;;;;19.60;46.00;;;;;;5067933;28;19928;-69
2022/09/28 01:17:07;;;;;;;;;;;19.60;46.00;;;;;;5061692;28;19970;-69
2022/09/28 01:19:44;;;;;;;;;;;19.60;46.00;;;;;;5048650;28;20331;-69
2022/09/28 01:22:14;;;;;;;;;;;19.60;45.90;;;;;;5080867;28;19981;-69
2022/09/28 01:24:42;;;;;;;;;;;19.60;45.90;;;;;;5067552;28;19920;-69
2022/09/28 01:27:16;;;;;;;;;;;19.60;45.90;;;;;;5067026;28;19924;-69
2022/09/28 01:29:47;;;;;;;;;;;19.60;45.90;;;;;;5067517;28;19920;-70
2022/09/28 01:32:17;;;;;;;;;;;19.60;45.80;;;;;;5059171;28;20024;-69
2022/09/28 01:34:46;;;;;;;;;;;19.60;45.80;;;;;;5072893;28;19924;-69
2022/09/28 01:37:13;;;;;;;;;;;19.60;45.80;;;;;;5078926;28;19986;-69
2022/09/28 01:39:41;;;;;;;;;;;19.60;45.80;;;;;;5078108;28;19920;-69
2022/09/28 01:42:08;;;;;;;;;;;19.60;45.80;;;;;;5061910;28;19925;-69
2022/09/28 01:44:38;;;;;;;;;;;19.60;45.80;;;;;;5060251;28;19974;-68
2022/09/28 01:47:06;;;;;;;;;;;19.50;45.70;;;;;;5050039;28;20277;-68
2022/09/28 01:49:38;;;;;;;;;;;19.50;45.70;;;;;;5064217;28;19971;-69
2022/09/28 01:52:04;;;;;;;;;;;19.50;45.70;;;;;;5074302;28;19927;-69
2022/09/28 01:54:31;;;;;;;;;;;19.60;45.80;;;;;;5067214;28;19928;-69
2022/09/28 01:56:59;;;;;;;;;;;19.60;45.80;;;;;;5064321;28;20259;-68
2022/09/28 01:59:26;;;;;;;;;;;19.50;45.70;;;;;;5047639;28;19929;-68
2022/09/28 02:01:55;;;;;;;;;;;19.50;45.60;;;;;;5059480;28;19921;-68
2022/09/28 02:04:27;;;;;;;;;;;19.60;45.80;;;;;;5067220;28;19947;-69
2022/09/28 02:06:55;;;;;;;;;;;19.50;45.70;;;;;;5070350;28;19927;-68
2022/09/28 02:09:23;;;;;;;;;;;19.60;45.70;;;;;;5070614;28;19920;-69
2022/09/28 02:11:50;;;;;;;;;;;19.50;45.60;;;;;;5088060;28;20209;-68
2022/09/28 02:14:18;;;;;;;;;;;19.50;45.70;;;;;;5061647;28;20300;-69
2022/09/28 02:16:45;;;;;;;;;;;19.50;45.60;;;;;;5054529;28;19920;-68
2022/09/28 02:19:17;;;;;;;;;;;19.50;45.60;;;;;;5071079;28;19924;-69
2022/09/28 02:21:46;;;;;;;;;;;19.50;45.60;;;;;;5070721;28;19925;-69
2022/09/28 02:24:14;;;;;;;;;;;19.50;45.60;;;;;;5053038;28;19921;-69
2022/09/28 02:26:41;;;;;;;;;;;19.50;45.60;;;;;;5066383;28;19943;-69
2022/09/28 02:29:09;;;;;;;;;;;19.50;45.60;;;;;;5052541;28;20370;-68
2022/09/28 02:31:36;;;;;;;;;;;19.50;45.50;;;;;;5060367;28;19952;-69
2022/09/28 02:34:03;;;;;;;;;;;19.50;45.50;;;;;;5063742;28;19985;-69
2022/09/28 02:36:32;;;;;;;;;;;19.50;45.50;;;;;;5071314;28;19943;-68
2022/09/28 02:39:04;;;;;;;;;;;19.50;45.50;;;;;;5068244;28;19951;-69
2022/09/28 02:41:35;;;;;;;;;;;19.50;45.40;;;;;;5061734;28;19973;-69
2022/09/28 02:44:07;;;;;;;;;;;19.50;45.40;;;;;;5072618;28;19921;-69
2022/09/28 02:46:37;;;;;;;;;;;19.50;45.40;;;;;;5071930;28;19920;-69
2022/09/28 02:49:09;;;;;;;;;;;19.50;45.30;;;;;;5055596;28;19925;-69
2022/09/28 02:51:45;;;;;;;;;;;19.50;45.30;;;;;;5075355;28;19974;-69
2022/09/28 02:54:29;;;;;;;;;;;19.50;45.30;;;;;;5057755;28;19921;-69
2022/09/28 02:57:01;;;;;;;;;;;19.50;45.30;;;;;;5068622;28;19924;-69
2022/09/28 02:59:33;;;;;;;;;;;19.50;45.20;;;;;;5070186;28;19932;-69
2022/09/28 03:02:01;;;;;;;;;;;19.50;45.20;;;;;;5069074;28;19921;-69
2022/09/28 03:04:36;;;;;;;;;;;19.40;45.20;;;;;;5071182;28;19920;-69
2022/09/28 03:07:05;;;;;;;;;;;19.50;45.20;;;;;;5064364;28;19928;-69
2022/09/28 03:09:34;;;;;;;;;;;19.40;45.10;;;;;;5069867;28;19920;-69
2022/09/28 03:12:01;;;;;;;;;;;19.50;45.10;;;;;;5065187;28;20172;-69
2022/09/28 03:14:28;;;;;;;;;;;19.40;45.10;;;;;;5070948;28;19924;-69
2022/09/28 03:16:55;;;;;;;;;;;19.40;45.00;;;;;;5064088;28;19920;-69
2022/09/28 03:19:23;;;;;;;;;;;19.40;45.00;;;;;;5049938;28;20404;-69
2022/09/28 03:21:50;;;;;;;;;;;19.40;45.00;;;;;;5070206;28;19947;-69
2022/09/28 03:24:22;;;;;;;;;;;19.40;45.00;;;;;;5053142;28;19924;-69
2022/09/28 03:26:49;;;;;;;;;;;19.40;45.00;;;;;;5069302;28;19956;-69
2022/09/28 03:29:16;;;;;;;;;;;19.40;44.90;;;;;;5061310;28;19921;-69
2022/09/28 03:31:43;;;;;;;;;;;19.40;44.90;;;;;;5073803;28;19924;-69
2022/09/28 03:34:13;;;;;;;;;;;19.40;44.90;;;;;;5069400;28;20222;-69
2022/09/28 03:36:40;;;;;;;;;;;19.40;44.90;;;;;;5069465;28;19924;-69
2022/09/28 03:39:07;;;;;;;;;;;19.40;44.80;;;;;;5066638;28;19920;-69
2022/09/28 03:41:44;;;;;;;;;;;19.40;44.80;;;;;;5072715;28;19951;-69
2022/09/28 03:44:12;;;;;;;;;;;19.40;44.80;;;;;;5069435;28;19924;-69
2022/09/28 03:46:39;;;;;;;;;;;19.40;44.80;;;;;;5068789;28;20393;-69
2022/09/28 03:49:06;;;;;;;;;;;19.40;44.80;;;;;;5069484;28;19947;-69
2022/09/28 03:51:33;;;;;;;;;;;19.40;44.80;;;;;;5068816;28;20249;-69
2022/09/28 03:54:03;;;;;;;;;;;19.40;44.80;;;;;;5061313;28;19921;-69
2022/09/28 03:56:30;;;;;;;;;;;19.30;44.70;;;;;;5069109;28;19920;-68
2022/09/28 03:58:58;;;;;;;;;;;19.40;44.80;;;;;;5036053;28;20016;-69
2022/09/28 04:01:25;;;;;;;;;;;19.40;44.80;;;;;;5068249;28;19921;-69
2022/09/28 04:03:53;;;;;;;;;;;19.30;44.70;;;;;;5052192;28;19928;-69
2022/09/28 04:06:24;;;;;;;;;;;19.30;44.60;;;;;;5069131;28;19920;-69
2022/09/28 04:08:52;;;;;;;;;;;19.30;44.60;;;;;;5065797;28;19927;-69
2022/09/28 04:11:19;;;;;;;;;;;19.30;44.60;;;;;;5054277;28;19963;-69
2022/09/28 04:13:47;;;;;;;;;;;19.30;44.60;;;;;;5068746;28;20447;-69
2022/09/28 04:16:18;;;;;;;;;;;19.30;44.60;;;;;;5065655;28;19928;-69
2022/09/28 04:18:46;;;;;;;;;;;19.30;44.50;;;;;;5068593;28;19955;-69
2022/09/28 04:21:14;;;;;;;;;;;19.30;44.60;;;;;;5068597;28;19925;-69
2022/09/28 04:23:41;;;;;;;;;;;19.30;44.60;;;;;;5064735;28;19924;-69
2022/09/28 04:26:08;;;;;;;;;;;19.30;44.50;;;;;;5067203;28;19927;-69
2022/09/28 04:31:23;;;;;;;;;;;19.30;44.50;;;;;;5068552;28;19956;-69
2022/09/28 04:33:52;;;;;;;;;;;19.30;44.50;;;;;;5034083;28;19921;-68
2022/09/28 04:36:20;;;;;;;;;;;19.30;44.50;;;;;;5052759;28;19924;-69
2022/09/28 04:38:47;;;;;;;;;;;19.30;44.40;;;;;;5052310;28;19942;-69
2022/09/28 04:41:16;;;;;;;;;;;19.30;44.40;;;;;;5067726;28;19920;-69
2022/09/28 04:43:46;;;;;;;;;;;19.30;44.40;;;;;;5068995;28;19920;-69
2022/09/28 04:46:13;;;;;;;;;;;19.30;44.40;;;;;;5060776;28;19920;-69
2022/09/28 04:48:41;;;;;;;;;;;19.30;44.40;;;;;;5065480;28;19924;-69
2022/09/28 04:51:08;;;;;;;;;;;19.30;44.40;;;;;;5067124;28;19973;-69
2022/09/28 04:53:35;;;;;;;;;;;19.30;44.40;;;;;;5064853;28;19924;-69
2022/09/28 04:56:03;;;;;;;;;;;19.30;44.40;;;;;;5046499;28;19952;-69
2022/09/28 04:58:29;;;;;;;;;;;19.20;44.30;;;;;;5061149;28;20392;-69
2022/09/28 05:00:57;;;;;;;;;;;19.30;44.40;;;;;;5064872;28;20002;-69
2022/09/28 05:03:24;;;;;;;;;;;19.30;44.40;;;;;;5051099;28;20094;-69
2022/09/28 05:06:10;;;;;;;;;;;19.30;44.40;;;;;;5091121;27;19916;-68
2022/09/28 05:08:37;;;;;;;;;;;19.30;44.40;;;;;;5101425;28;20308;-68
2022/09/28 05:11:04;;;;;;;;;;;19.30;44.40;;;;;;5101305;28;19927;-68
2022/09/28 05:13:34;;;;;;;;;;;19.30;44.40;;;;;;5100547;28;20258;-68
2022/09/28 05:16:01;;;;;;;;;;;19.20;44.30;;;;;;5101216;28;20022;-68
2022/09/28 05:18:28;;;;;;;;;;;19.30;44.40;;;;;;5101856;28;19966;-68
2022/09/28 05:20:55;;;;;;;;;;;19.30;44.40;;;;;;5101918;28;19924;-68
2022/09/28 05:23:23;;;;;;;;;;;19.30;44.40;;;;;;5101691;28;19928;-68
2022/09/28 05:25:51;;;;;;;;;;;19.30;44.30;;;;;;5100935;28;19946;-68
2022/09/28 05:28:21;;;;;;;;;;;19.30;44.40;;;;;;5101583;28;19969;-68
2022/09/28 05:30:48;;;;;;;;;;;19.20;44.30;;;;;;5084800;28;19920;-68
2022/09/28 05:33:17;;;;;;;;;;;19.30;44.40;;;;;;5100749;28;19964;-68
2022/09/28 05:35:43;;;;;;;;;;;19.30;44.40;;;;;;5084712;28;19920;-69
2022/09/28 05:38:10;;;;;;;;;;;19.20;44.30;;;;;;5083503;28;19921;-68
2022/09/28 05:40:38;;;;;;;;;;;19.20;44.30;;;;;;5085530;28;20343;-70
2022/09/28 05:43:05;;;;;;;;;;;19.30;44.30;;;;;;5083969;28;20027;-68
2022/09/28 05:45:32;;;;;;;;;;;19.20;44.30;;;;;;5101299;28;19924;-69
2022/09/28 05:47:59;;;;;;;;;;;19.20;44.30;;;;;;5083903;28;19959;-68
2022/09/28 05:50:25;;;;;;;;;;;19.30;44.40;;;;;;5101110;28;19931;-68
2022/09/28 05:52:59;;;;;;;;;;;19.30;44.30;;;;;;5100854;28;20360;-69
2022/09/28 05:55:26;;;;;;;;;;;19.30;44.40;;;;;;5100339;28;19928;-68
2022/09/28 05:57:56;;;;;;;;;;;19.30;44.40;;;;;;5085352;28;19974;-68
2022/09/28 06:00:22;;;;;;;;;;;19.20;44.40;;;;;;5082704;28;20003;-68
2022/09/28 06:02:56;;;;;;;;;;;19.20;44.40;;;;;;5100362;28;19931;-68
2022/09/28 06:05:23;;;;;;;;;;;19.30;44.40;;;;;;5097332;28;19927;-67
2022/09/28 06:07:50;;;;;;;;;;;19.20;44.30;;;;;;5082683;28;19927;-69
2022/09/28 06:10:16;;;;;;;;;;;19.30;44.40;;;;;;5100249;28;20195;-70
2022/09/28 06:12:44;;;;;;;;;;;19.20;44.30;;;;;;5083437;28;19920;-68
2022/09/28 06:15:12;;;;;;;;;;;19.20;44.20;;;;;;5094818;28;20437;-68
2022/09/28 06:17:39;;;;;;;;;;;19.20;44.20;;;;;;5083101;28;19920;-68
2022/09/28 06:20:06;;;;;;;;;;;19.30;44.30;;;;;;5086511;28;20034;-68
2022/09/28 06:22:33;;;;;;;;;;;19.20;44.20;;;;;;5070890;28;19931;-68
2022/09/28 06:25:00;;;;;;;;;;;19.30;44.30;;;;;;5071152;28;19974;-68
2022/09/28 06:27:26;;;;;;;;;;;19.30;44.30;;;;;;5084842;28;19920;-68
2022/09/28 06:29:53;;;;;;;;;;;19.20;44.30;;;;;;5086332;28;19975;-68
2022/09/28 06:32:21;;;;;;;;;;;19.20;44.30;;;;;;5086140;28;19920;-68
2022/09/28 06:34:48;;;;;;;;;;;19.20;44.30;;;;;;5086078;28;19982;-69
2022/09/28 06:37:15;;;;;;;;;;;19.20;44.30;;;;;;5086408;28;19990;-68
2022/09/28 06:39:44;;;;;;;;;;;19.20;44.30;;;;;;5086114;28;19920;-68
2022/09/28 06:42:11;;;;;;;;;;;19.20;44.30;;;;;;5086014;28;19925;-68
2022/09/28 06:44:38;;;;;;;;;;;19.20;44.30;;;;;;5069119;28;19920;-68
2022/09/28 06:47:04;;;;;;;;;;;19.20;44.30;;;;;;5086864;28;19920;-65
2022/09/28 06:49:33;;;;;;;;;;;19.20;44.30;;;;;;5086143;28;20011;-64
2022/09/28 06:51:59;;;;;;;;;;;19.20;44.20;;;;;;5066293;28;19987;-66
2022/09/28 06:54:26;;;;;;;;;;;19.20;43.70;;;;;;5080915;28;19920;-66
2022/09/28 06:56:53;;;;;;;;;;;19.10;43.30;;;;;;5064697;28;20015;-65
2022/09/28 06:59:20;;;;;;;;;;;19.10;43.30;;;;;;5084006;28;19920;-67
2022/09/28 07:01:46;;;;;;;;;;;19.00;43.40;;;;;;5070308;28;19921;-67
2022/09/28 07:04:13;;;;;;;;;;;19.00;43.50;;;;;;5066299;28;19920;-68
2022/09/28 07:06:43;;;;;;;;;;;19.00;43.70;;;;;;5067215;28;19939;-67
2022/09/28 07:09:10;;;;;;;;;;;19.00;43.80;;;;;;5066652;28;19969;-68
2022/09/28 07:11:38;;;;;;;;;;;19.00;43.90;;;;;;5084883;28;19956;-67
2022/09/28 07:14:04;;;;;;;;;;;19.00;44.00;;;;;;5085697;28;19920;-67
2022/09/28 07:16:31;;;;;;;;;;;19.10;44.10;;;;;;5071265;28;19973;-69
2022/09/28 07:18:58;;;;;;;;;;;19.10;44.20;;;;;;5070846;28;19921;-69
2022/09/28 07:21:25;;;;;;;;;;;19.10;44.20;;;;;;5069291;28;19932;-69
2022/09/28 07:23:53;;;;;;;;;;;19.10;44.30;;;;;;5086329;28;19931;-68
2022/09/28 07:26:20;;;;;;;;;;;19.10;44.30;;;;;;5070751;28;19926;-68
2022/09/28 07:28:47;;;;;;;;;;;19.20;44.40;;;;;;5085386;28;20388;-66
2022/09/28 07:31:13;;;;;;;;;;;19.20;44.40;;;;;;5086178;28;20134;-66
2022/09/28 07:33:40;;;;;;;;;;;19.30;44.50;;;;;;5086091;28;19956;-69
2022/09/28 07:36:07;;;;;;;;;;;19.20;44.40;;;;;;5083155;28;19928;-71
2022/09/28 07:38:34;;;;;;;;;;;19.20;44.50;;;;;;5071013;28;20262;-71
2022/09/28 07:41:10;;;;;;;;;;;19.30;44.60;;;;;;5085402;28;20023;-70
2022/09/28 07:43:38;;;;;;;;;;;19.30;44.60;;;;;;5070415;28;20011;-69
2022/09/28 07:46:10;;;;;;;;;;;19.30;44.60;;;;;;5086096;28;20004;-70
2022/09/28 07:48:38;;;;;;;;;;;19.30;44.60;;;;;;5086218;28;20373;-69
2022/09/28 07:51:06;;;;;;;;;;;19.30;44.60;;;;;;5086472;28;20013;-69
2022/09/28 07:53:33;;;;;;;;;;;19.40;44.80;;;;;;5084289;28;19970;-71
2022/09/28 07:56:05;;;;;;;;;;;19.40;44.80;;;;;;5085495;28;20465;-69
2022/09/28 07:58:32;;;;;;;;;;;19.40;44.80;;;;;;5083901;28;19921;-68
2022/09/28 08:01:02;;;;;;;;;;;19.40;44.80;;;;;;5068755;28;20320;-67
2022/09/28 08:03:29;;;;;;;;;;;19.40;44.80;;;;;;5082527;28;20342;-70
2022/09/28 08:05:57;;;;;;;;;;;19.40;44.80;;;;;;5069287;28;19950;-68
2022/09/28 08:08:24;;;;;;;;;;;19.40;44.80;;;;;;5072004;28;19925;-69
2022/09/28 08:10:51;;;;;;;;;;;19.50;44.90;;;;;;5087786;28;19924;-69
2022/09/28 08:13:20;;;;;;;;;;;19.50;44.90;;;;;;5089297;28;20469;-69
2022/09/28 08:15:49;;;;;;;;;;;19.50;44.90;;;;;;5086759;28;19974;-69
2022/09/28 08:18:16;;;;;;;;;;;19.50;45.00;;;;;;5085902;28;19950;-70
2022/09/28 08:23:27;;;;;;;;;;;19.50;45.60;;;;;;5069989;28;19931;-61
2022/09/28 08:25:54;;;;;;;;;;;19.50;45.10;;;;;;5069603;28;19959;-61
2022/09/28 08:28:23;;;;;;;;;;;19.50;45.10;;;;;;5068614;28;19925;-62
2022/09/28 08:30:50;;;;;;;;;;;19.60;45.20;;;;;;5085638;28;20216;-61
2022/09/28 08:33:17;;;;;;;;;;;19.60;45.30;;;;;;5085452;28;20031;-61
2022/09/28 08:35:45;;;;;;;;;;;19.60;45.30;;;;;;5085652;28;19935;-60
2022/09/28 08:38:12;;;;;;;;;;;19.60;45.40;;;;;;5071019;28;20312;-60
2022/09/28 08:40:41;;;;;;;;;;;19.60;45.40;;;;;;5085051;28;20007;-61
2022/09/28 08:43:21;;;;;;;;;;;19.60;45.40;;;;;;5069039;28;20093;-61
2022/09/28 08:45:49;;;;;;;;;;;19.70;45.50;;;;;;5085381;28;19921;-61
2022/09/28 08:51:05;;;;;;;;;;;19.70;45.50;;;;;;5069677;28;19920;-60
2022/09/28 08:53:34;;;;;;;;;;;19.70;45.60;;;;;;5067664;28;19970;-61
2022/09/28 08:56:01;;;;;;;;;;;19.70;45.60;;;;;;5085513;28;19954;-60
2022/09/28 08:58:29;;;;;;;;;;;19.80;45.80;;;;;;5082432;28;19933;-62
2022/09/28 09:00:57;;;;;;;;;;;19.80;45.90;;;;;;5083246;28;19935;-62
2022/09/28 09:03:25;;;;;;;;;;;19.80;45.90;;;;;;5084263;28;19920;-62
2022/09/28 09:05:54;;;;;;;;;;;19.80;45.90;;;;;;5084841;28;20014;-62
2022/09/28 09:08:25;;;;;;;;;;;19.80;45.90;;;;;;5085511;28;19920;-62
2022/09/28 09:10:52;;;;;;;;;;;19.80;46.00;;;;;;5084868;28;19935;-61
2022/09/28 09:13:30;;;;;;;;;;;19.90;46.00;;;;;;5069731;28;19920;-62
2022/09/28 09:15:59;;;;;;;;;;;19.90;46.10;;;;;;5084936;28;19931;-61
2022/09/28 09:18:27;;;;;;;;;;;19.90;46.10;;;;;;5069465;28;20326;-62
2022/09/28 09:20:55;;;;;;;;;;;19.90;46.10;;;;;;5068680;28;19971;-62
2022/09/28 09:23:27;;;;;;;;;;;19.90;46.10;;;;;;5085128;28;19925;-62
2022/09/28 09:25:54;;;;;;;;;;;19.90;46.20;;;;;;5083931;28;20361;-63
2022/09/28 09:28:31;;;;;;;;;;;19.90;46.20;;;;;;5069619;28;19931;-62
2022/09/28 09:31:03;;;;;;;;;;;19.90;46.20;;;;;;5083120;28;19963;-62
2022/09/28 09:33:38;;;;;;;;;;;20.00;46.30;;;;;;5083701;28;19932;-62
2022/09/28 09:36:19;;;;;;;;;;;20.00;46.30;;;;;;5084000;28;19921;-62
2022/09/28 09:38:51;;;;;;;;;;;20.00;46.30;;;;;;5082571;28;19920;-61
2022/09/28 09:41:21;;;;;;;;;;;20.00;46.40;;;;;;5067344;28;20391;-62
2022/09/28 09:44:06;;;;;;;;;;;20.00;46.40;;;;;;5084076;28;20007;-62
2022/09/28 09:46:37;;;;;;;;;;;20.00;46.40;;;;;;5068453;28;19968;-62
2022/09/28 09:49:05;;;;;;;;;;;20.00;46.40;;;;;;5083986;28;20325;-62
2022/09/28 09:51:33;;;;;;;;;;;20.00;46.40;;;;;;5070717;28;19924;-61
2022/09/28 09:54:02;;;;;;;;;;;20.00;46.40;;;;;;5088208;28;19927;-62
2022/09/28 09:56:33;;;;;;;;;;;20.10;46.50;;;;;;5072509;28;19939;-61
2022/09/28 09:59:01;;;;;;;;;;;20.10;46.50;;;;;;5071353;28;19924;-62
2022/09/28 10:01:30;;;;;;;;;;;20.10;46.50;;;;;;5087562;28;19920;-62
2022/09/28 10:03:58;;;;;;;;;;;20.10;46.50;;;;;;5085273;28;20007;-62
2022/09/28 10:06:26;;;;;;;;;;;20.10;46.60;;;;;;5087566;28;19920;-63
2022/09/28 10:08:56;;;;;;;;;;;20.10;46.50;;;;;;5088355;28;19921;-62
2022/09/28 10:11:25;;;;;;;;;;;20.10;46.50;;;;;;5087143;28;19920;-61
2022/09/28 10:13:52;;;;;;;;;;;20.10;46.50;;;;;;5088162;28;20019;-61
2022/09/28 10:16:19;;;;;;;;;;;20.10;46.60;;;;;;5087543;28;19920;-61
2022/09/28 10:18:46;;;;;;;;;;;20.10;46.60;;;;;;5087676;28;19920;-62
2022/09/28 10:21:14;;;;;;;;;;;20.20;46.70;;;;;;5071626;28;19924;-61
2022/09/28 10:23:41;;;;;;;;;;;20.20;46.70;;;;;;5071094;28;20183;-62
2022/09/28 10:26:09;;;;;;;;;;;20.20;46.70;;;;;;5087450;28;19931;-62
2022/09/28 10:28:39;;;;;;;;;;;20.20;46.70;;;;;;5065959;28;19928;-61
2022/09/28 10:31:25;;;;;;;;;;;20.20;46.70;;;;;;5071661;28;19920;-62
2022/09/28 10:33:53;;;;;;;;;;;20.20;46.70;;;;;;5086725;28;19990;-61
2022/09/28 10:36:23;;;;;;;;;;;20.20;46.70;;;;;;5072381;28;19924;-61
2022/09/28 10:38:49;;;;;;;;;;;20.20;47.30;;;;;;5072412;28;19927;-62
2022/09/28 10:41:17;;;;;;;;;;;20.20;46.70;;;;;;5069718;28;19920;-63
2022/09/28 10:43:49;;;;;;;;;;;20.20;46.80;;;;;;5087403;28;19921;-63
2022/09/28 10:46:20;;;;;;;;;;;20.20;46.80;;;;;;5084960;28;19952;-60
2022/09/28 10:48:48;;;;;;;;;;;20.20;46.80;;;;;;5085716;28;20134;-60
2022/09/28 10:51:15;;;;;;;;;;;20.30;46.90;;;;;;5087033;28;19966;-60
2022/09/28 10:53:56;;;;;;;;;;;20.30;46.90;;;;;;5087123;28;20030;-59
2022/09/28 10:56:23;;;;;;;;;;;20.30;46.90;;;;;;5085728;28;20010;-60
2022/09/28 10:58:50;;;;;;;;;;;20.30;46.80;;;;;;5071675;28;20453;-60
2022/09/28 11:01:18;;;;;;;;;;;20.30;46.80;;;;;;5086829;28;19928;-60
2022/09/28 11:03:49;;;;;;;;;;;20.30;46.90;;;;;;5086888;28;19959;-60
2022/09/28 11:06:16;;;;;;;;;;;20.30;46.90;;;;;;5084394;28;19925;-60
2022/09/28 11:08:44;;;;;;;;;;;20.30;46.90;;;;;;5071631;28;20045;-60
2022/09/28 11:11:11;;;;;;;;;;;20.30;47.00;;;;;;5086463;28;19928;-60
2022/09/28 11:13:39;;;;;;;;;;;20.30;47.00;;;;;;5068836;28;20027;-60
2022/09/28 11:16:06;;;;;;;;;;;20.30;47.00;;;;;;5086233;28;20011;-60
2022/09/28 11:18:33;;;;;;;;;;;20.30;47.00;;;;;;5086473;28;19981;-62
2022/09/28 11:21:09;;;;;;;;;;;20.30;47.00;;;;;;5086421;28;20055;-62
2022/09/28 11:23:36;;;;;;;;;;;20.30;47.10;;;;;;5071417;28;19947;-63
2022/09/28 11:26:04;;;;;;;;;;;20.30;47.10;;;;;;5070985;28;19934;-63
2022/09/28 11:28:32;;;;;;;;;;;20.30;47.10;;;;;;5086554;28;19924;-63
2022/09/28 11:30:59;;;;;;;;;;;20.30;47.10;;;;;;5070739;28;20365;-63
2022/09/28 11:33:27;;;;;;;;;;;20.30;47.20;;;;;;5068085;28;20290;-63
2022/09/28 11:35:55;;;;;;;;;;;20.30;47.20;;;;;;5071111;28;19973;-63
2022/09/28 11:38:32;;;;;;;;;;;20.30;47.20;;;;;;5087557;28;19970;-62
2022/09/28 11:41:06;;;;;;;;;;;20.40;47.30;;;;;;5088621;28;19955;-75
2022/09/28 11:43:40;;;;;;;;;;;20.40;47.30;;;;;;5087077;28;19941;-73
2022/09/28 11:46:08;;;;;;;;;;;20.40;47.30;;;;;;5087529;28;19920;-70
2022/09/28 11:48:36;;;;;;;;;;;20.40;47.40;;;;;;5086652;28;19970;-72
2022/09/28 11:51:04;;;;;;;;;;;20.40;47.30;;;;;;5087378;28;19930;-72
2022/09/28 11:53:31;;;;;;;;;;;20.40;47.40;;;;;;5087382;28;19974;-72
2022/09/28 11:55:58;;;;;;;;;;;20.40;47.40;;;;;;5086940;28;19920;-72
2022/09/28 11:58:27;;;;;;;;;;;20.40;47.40;;;;;;5085269;28;19959;-79
2022/09/28 12:00:54;;;;;;;;;;;20.40;47.40;;;;;;5085557;28;19920;-79
2022/09/28 12:03:21;;;;;;;;;;;20.40;47.40;;;;;;5069664;28;19924;-73
2022/09/28 12:05:49;;;;;;;;;;;20.40;47.40;;;;;;5086903;28;20067;-73
2022/09/28 12:08:17;;;;;;;;;;;20.40;47.40;;;;;;5086328;28;19925;-78
2022/09/28 12:10:46;;;;;;;;;;;20.30;47.30;;;;;;5071108;28;19974;-77
2022/09/28 12:13:14;;;;;;;;;;;20.30;47.30;;;;;;5085412;28;19924;-75
2022/09/28 12:15:43;;;;;;;;;;;20.30;47.30;;;;;;5085971;28;20014;-74
2022/09/28 12:18:12;;;;;;;;;;;20.30;47.30;;;;;;5086575;28;19920;-80
2022/09/28 12:20:40;;;;;;;;;;;20.30;47.30;;;;;;5068828;28;19971;-76
2022/09/28 12:23:07;;;;;;;;;;;20.30;47.40;;;;;;5071616;28;19966;-75
2022/09/28 12:25:35;;;;;;;;;;;20.30;47.40;;;;;;5069506;28;19924;-72
2022/09/28 12:28:02;;;;;;;;;;;20.30;47.30;;;;;;5071741;28;20550;-73
2022/09/28 12:30:30;;;;;;;;;;;20.30;47.40;;;;;;5087024;28;19951;-73
2022/09/28 12:33:00;;;;;;;;;;;20.30;47.40;;;;;;5069353;28;19970;-72
2022/09/28 12:35:28;;;;;;;;;;;20.30;47.40;;;;;;5082066;28;20015;-71
2022/09/28 12:38:07;;;;;;;;;;;20.30;47.40;;;;;;5081394;28;19920;-75
2022/09/28 12:40:37;;;;;;;;;;;20.30;47.40;;;;;;5064450;28;19933;-71
2022/09/28 12:43:11;;;;;;;;;;;20.30;47.40;;;;;;5085380;28;19932;-72
2022/09/28 12:45:40;;;;;;;;;;;20.30;47.40;;;;;;5085832;28;19982;-72
2022/09/28 12:48:13;;;;;;;;;;;20.30;47.40;;;;;;5085548;28;20017;-72
2022/09/28 12:50:40;;;;;;;;;;;20.30;47.40;;;;;;5084651;28;19924;-73
2022/09/28 12:53:14;;;;;;;;;;;20.30;47.40;;;;;;5085843;28;19920;-75
2022/09/28 12:55:44;;;;;;;;;;;20.30;47.40;;;;;;5085769;28;20424;-74
2022/09/28 12:58:16;;;;;;;;;;;20.30;47.40;;;;;;5083208;28;19920;-77
2022/09/28 13:00:47;;;;;;;;;;;20.30;47.40;;;;;;5085453;28;19986;-75
2022/09/28 13:03:32;;;;;;;;;;;20.30;47.40;;;;;;5080553;28;19920;-77
2022/09/28 13:06:06;;;;;;;;;;;20.30;47.40;;;;;;5084660;28;19921;-74
2022/09/28 13:08:33;;;;;;;;;;;20.30;47.40;;;;;;5077694;28;19954;-75
2022/09/28 13:11:02;;;;;;;;;;;20.30;47.40;;;;;;5068523;28;19963;-73
2022/09/28 13:13:31;;;;;;;;;;;20.30;47.40;;;;;;5065346;28;20026;-75
2022/09/28 13:15:59;;;;;;;;;;;20.30;47.30;;;;;;5085309;28;19970;-73
2022/09/28 13:18:26;;;;;;;;;;;20.30;47.30;;;;;;5085650;28;19978;-74
2022/09/28 13:20:59;;;;;;;;;;;20.30;47.30;;;;;;5085613;28;20416;-76
2022/09/28 13:23:28;;;;;;;;;;;20.30;47.30;;;;;;5069188;28;19967;-73
2022/09/28 13:25:56;;;;;;;;;;;20.30;47.30;;;;;;5066954;28;19936;-76
2022/09/28 13:28:24;;;;;;;;;;;20.30;47.30;;;;;;5087033;28;19968;-72
2022/09/28 13:30:50;;;;;;;;;;;20.30;47.30;;;;;;5086896;28;19921;-73
2022/09/28 13:33:18;;;;;;;;;;;20.30;47.30;;;;;;5089120;28;19927;-73
2022/09/28 13:35:45;;;;;;;;;;;20.30;47.30;;;;;;5071954;28;19963;-75
2022/09/28 13:38:39;;;;;;;;;;;20.30;47.30;;;;;;5089123;28;19924;-75
2022/09/28 13:41:09;;;;;;;;;;;20.30;47.30;;;;;;5074619;28;19959;-74
2022/09/28 13:43:40;;;;;;;;;;;20.30;47.30;;;;;;5086309;28;19958;-75
2022/09/28 13:46:06;;;;;;;;;;;20.30;47.20;;;;;;5073551;28;19928;-82
2022/09/28 13:48:36;;;;;;;;;;;20.30;47.20;;;;;;5071628;28;19929;-76
2022/09/28 13:51:11;;;;;;;;;;;20.30;47.10;;;;;;5087873;28;19921;-74
2022/09/28 13:53:52;;;;;;;;;;;20.30;47.10;;;;;;5073347;28;19932;-73
2022/09/28 13:56:24;;;;;;;;;;;20.30;47.10;;;;;;5085835;28;20251;-76
2022/09/28 13:58:51;;;;;;;;;;;20.30;47.10;;;;;;5081196;28;20012;-75
2022/09/28 14:01:18;;;;;;;;;;;20.30;47.10;;;;;;5086032;28;19967;-81
2022/09/28 14:03:53;;;;;;;;;;;20.30;47.10;;;;;;5089211;28;20019;-75
2022/09/28 14:06:23;;;;;;;;;;;20.30;47.10;;;;;;5088928;28;19987;-74
2022/09/28 14:09:14;;;;;;;;;;;20.30;47.10;;;;;;5086607;28;19921;-76
2022/09/28 14:11:54;;;;;;;;;;;20.30;47.10;;;;;;5067781;28;19920;-77
2022/09/28 14:14:24;;;;;;;;;;;20.30;47.10;;;;;;5085217;28;19924;-74
2022/09/28 14:16:51;;;;;;;;;;;20.30;47.10;;;;;;5086620;28;20376;-74
2022/09/28 14:19:19;;;;;;;;;;;20.30;47.10;;;;;;5086171;28;19921;-74
2022/09/28 14:22:02;;;;;;;;;;;20.30;47.10;;;;;;5088981;28;20014;-76
2022/09/28 14:24:34;;;;;;;;;;;20.30;47.10;;;;;;5089131;28;19974;-69
2022/09/28 14:27:10;;;;;;;;;;;20.30;47.10;;;;;;5088941;28;19959;-74
2022/09/28 14:29:37;;;;;;;;;;;20.30;47.10;;;;;;5086003;28;19963;-75
2022/09/28 14:32:04;;;;;;;;;;;20.30;47.10;;;;;;5071886;28;19975;-73
2022/09/28 14:34:32;;;;;;;;;;;20.30;47.10;;;;;;5088275;28;19920;-75